createdAt,value
2022-10-05T00:00:48.648Z,17.37
2022-10-05T00:03:18.425Z,17.39
2022-10-05T00:05:49.011Z,17.40
2022-10-05T00:08:24.312Z,17.42
2022-10-05T00:10:56.950Z,17.39
2022-10-05T00:13:28.991Z,17.36
2022-10-05T00:16:02.477Z,17.36
2022-10-05T00:18:32.291Z,17.33
2022-10-05T00:21:02.815Z,17.34
2022-10-05T00:23:35.446Z,17.34
2022-10-05T00:26:14.624Z,17.32
2022-10-05T00:28:44.533Z,17.30
2022-10-05T00:31:19.515Z,17.26
2022-10-05T00:33:49.779Z,17.28
2022-10-05T00:36:20.093Z,17.27
2022-10-05T00:38:50.144Z,17.25
2022-10-05T00:41:27.491Z,17.25
2022-10-05T00:44:27.132Z,17.25
2022-10-05T00:47:00.104Z,17.22
2022-10-05T00:49:48.620Z,17.17
2022-10-05T00:52:28.231Z,17.16
2022-10-05T00:55:08.633Z,17.14
2022-10-05T00:57:53.777Z,17.11
2022-10-05T01:00:27.647Z,17.14
2022-10-05T01:03:06.798Z,17.15
2022-10-05T01:05:51.626Z,17.13
2022-10-05T01:08:32.440Z,17.11
2022-10-05T01:11:10.422Z,17.12
2022-10-05T01:13:52.304Z,17.12
2022-10-05T01:16:30.547Z,17.06
2022-10-05T01:19:09.240Z,17.04
2022-10-05T01:21:46.220Z,17.06
2022-10-05T01:24:47.705Z,17.07
2022-10-05T01:27:41.052Z,17.04
2022-10-05T01:30:14.870Z,17.03
2022-10-05T01:32:51.477Z,17.00
2022-10-05T01:35:33.638Z,16.99
2022-10-05T01:38:15.438Z,16.97
2022-10-05T01:40:57.853Z,16.96
2022-10-05T01:43:35.940Z,16.93
2022-10-05T01:46:13.120Z,16.93
2022-10-05T01:48:54.845Z,16.91
2022-10-05T01:51:30.508Z,16.87
2022-10-05T01:54:08.492Z,16.86
2022-10-05T01:56:46.156Z,16.87
2022-10-05T01:59:32.328Z,16.87
2022-10-05T02:02:06.075Z,16.91
2022-10-05T02:05:01.474Z,16.88
2022-10-05T02:07:39.322Z,16.85
2022-10-05T02:10:17.662Z,16.83
2022-10-05T02:12:51.783Z,16.82
2022-10-05T02:15:29.327Z,16.79
2022-10-05T02:18:05.542Z,16.76
2022-10-05T02:20:40.332Z,16.74
2022-10-05T02:23:17.285Z,16.72
2022-10-05T02:25:50.358Z,16.69
2022-10-05T02:28:26.255Z,16.70
2022-10-05T02:31:04.657Z,16.68
2022-10-05T02:33:36.280Z,16.58
2022-10-05T02:36:17.617Z,16.56
2022-10-05T02:39:05.519Z,16.54
2022-10-05T02:41:48.978Z,16.48
2022-10-05T02:44:29.776Z,16.49
2022-10-05T02:47:11.697Z,16.48
2022-10-05T02:49:47.540Z,16.48
2022-10-05T02:52:23.089Z,16.49
2022-10-05T02:55:01.415Z,16.43
2022-10-05T02:57:34.583Z,16.40
2022-10-05T03:00:11.019Z,16.39
2022-10-05T03:02:48.395Z,16.39
2022-10-05T03:05:24.829Z,16.33
2022-10-05T03:08:03.335Z,16.23
2022-10-05T03:10:43.743Z,16.28
2022-10-05T03:13:24.237Z,16.31
2022-10-05T03:16:08.992Z,16.29
2022-10-05T03:18:52.859Z,16.29
2022-10-05T03:21:34.611Z,16.31
2022-10-05T03:24:20.310Z,16.30
2022-10-05T03:27:01.961Z,16.30
2022-10-05T03:29:41.903Z,16.31
2022-10-05T03:32:25.555Z,16.32
2022-10-05T03:35:06.358Z,16.33
2022-10-05T03:37:49.441Z,16.34
2022-10-05T03:40:29.625Z,16.35
2022-10-05T03:43:09.128Z,16.39
2022-10-05T03:45:48.238Z,16.40
2022-10-05T03:48:22.739Z,16.38
2022-10-05T03:51:04.535Z,16.35
2022-10-05T03:53:42.155Z,16.32
2022-10-05T03:56:17.467Z,16.31
2022-10-05T03:58:56.461Z,16.30
2022-10-05T04:01:34.537Z,16.29
2022-10-05T04:04:10.021Z,16.27
2022-10-05T04:06:49.508Z,16.23
2022-10-05T04:09:25.583Z,16.26
2022-10-05T04:12:05.197Z,16.28
2022-10-05T04:14:41.452Z,16.25
2022-10-05T04:17:15.138Z,16.20
2022-10-05T04:19:48.463Z,16.20
2022-10-05T04:22:25.497Z,16.18
2022-10-05T04:25:01.422Z,16.18
2022-10-05T04:27:39.288Z,16.12
2022-10-05T04:30:15.411Z,16.11
2022-10-05T04:32:48.222Z,16.08
2022-10-05T04:35:43.299Z,16.08
2022-10-05T04:38:29.671Z,16.14
2022-10-05T04:41:15.614Z,16.19
2022-10-05T04:43:58.726Z,16.18
2022-10-05T04:46:41.030Z,16.19
2022-10-05T04:49:36.475Z,16.22
2022-10-05T04:52:15.107Z,16.21
2022-10-05T04:55:03.518Z,16.20
2022-10-05T04:57:43.290Z,16.19
2022-10-05T05:00:24.576Z,16.20
2022-10-05T05:03:23.912Z,16.23
2022-10-05T05:06:18.391Z,16.23
2022-10-05T05:09:30.202Z,16.26
2022-10-05T05:12:19.323Z,16.28
2022-10-05T05:15:09.866Z,16.27
2022-10-05T05:17:54.795Z,16.23
2022-10-05T05:20:36.687Z,16.16
2022-10-05T05:23:14.841Z,16.19
2022-10-05T05:25:50.622Z,16.21
2022-10-05T05:28:31.491Z,16.22
2022-10-05T05:31:08.415Z,16.24
2022-10-05T05:33:51.680Z,16.25
2022-10-05T05:36:44.995Z,16.27
2022-10-05T05:39:30.563Z,16.28
2022-10-05T05:42:10.461Z,16.31
2022-10-05T05:44:49.180Z,16.29
2022-10-05T05:47:23.297Z,16.25
2022-10-05T05:50:08.561Z,16.16
2022-10-05T05:52:44.473Z,16.13
2022-10-05T05:55:29.050Z,16.11
2022-10-05T05:58:06.779Z,16.13
2022-10-05T06:00:45.518Z,16.10
2022-10-05T06:03:22.000Z,16.11
2022-10-05T06:05:56.757Z,16.14
2022-10-05T06:08:35.925Z,16.17
2022-10-05T06:11:20.851Z,16.22
2022-10-05T06:13:51.044Z,16.23
2022-10-05T06:16:28.335Z,16.21
2022-10-05T06:19:01.320Z,16.24
2022-10-05T06:21:38.488Z,16.32
2022-10-05T06:24:18.464Z,16.34
2022-10-05T06:27:15.565Z,16.41
2022-10-05T06:30:01.657Z,16.43
2022-10-05T06:32:41.027Z,16.46
2022-10-05T06:35:20.750Z,16.51
2022-10-05T06:38:10.554Z,16.54
2022-10-05T06:40:59.231Z,16.61
2022-10-05T06:43:44.198Z,16.58
2022-10-05T06:46:33.402Z,16.56
2022-10-05T06:49:28.311Z,16.60
2022-10-05T06:52:22.498Z,16.68
2022-10-05T06:55:11.843Z,16.75
2022-10-05T06:57:56.377Z,16.76
2022-10-05T07:00:32.725Z,16.74
2022-10-05T07:03:11.338Z,16.77
2022-10-05T07:06:09.027Z,16.75
2022-10-05T07:09:04.549Z,16.79
2022-10-05T07:11:57.305Z,16.83
2022-10-05T07:14:46.085Z,16.85
2022-10-05T07:17:37.363Z,16.91
2022-10-05T07:20:18.536Z,16.97
2022-10-05T07:23:04.489Z,17.01
2022-10-05T07:25:39.777Z,17.00
2022-10-05T07:28:12.648Z,17.05
2022-10-05T07:30:50.905Z,17.06
2022-10-05T07:33:26.842Z,17.12
2022-10-05T07:36:18.257Z,17.16
2022-10-05T07:38:58.859Z,17.18
2022-10-05T07:41:40.222Z,17.42
2022-10-05T07:44:18.712Z,17.45
2022-10-05T07:46:56.807Z,17.64
2022-10-05T07:49:38.809Z,18.04
2022-10-05T07:52:15.227Z,18.35
2022-10-05T07:55:02.449Z,18.49
2022-10-05T07:57:42.112Z,18.49
2022-10-05T08:00:20.750Z,18.70
2022-10-05T08:02:55.536Z,18.89
2022-10-05T08:05:29.622Z,18.69
2022-10-05T08:08:09.347Z,18.55
2022-10-05T08:10:46.352Z,18.35
2022-10-05T08:13:22.644Z,18.40
2022-10-05T08:15:56.442Z,18.42
2022-10-05T08:18:40.720Z,18.43
2022-10-05T08:21:13.954Z,18.41
2022-10-05T08:23:50.038Z,18.28
2022-10-05T08:26:30.892Z,18.25
2022-10-05T08:29:13.929Z,18.26
2022-10-05T08:31:47.281Z,18.23
2022-10-05T08:34:25.918Z,18.30
2022-10-05T08:37:05.124Z,18.31
2022-10-05T08:39:43.990Z,18.32
2022-10-05T08:42:49.433Z,18.37
2022-10-05T08:45:43.725Z,18.45
2022-10-05T08:48:29.280Z,18.44
2022-10-05T08:51:28.282Z,18.53
2022-10-05T08:54:29.502Z,18.59
2022-10-05T08:57:24.676Z,18.61
2022-10-05T09:00:07.907Z,18.68
2022-10-05T09:03:02.496Z,18.74
2022-10-05T09:06:07.431Z,18.74
2022-10-05T09:09:07.460Z,18.86
2022-10-05T09:11:39.099Z,18.91
2022-10-05T09:14:31.039Z,18.94
2022-10-05T09:17:13.769Z,19.06
2022-10-05T09:20:09.194Z,19.03
2022-10-05T09:22:47.585Z,18.98
2022-10-05T09:25:24.937Z,18.88
2022-10-05T09:27:59.416Z,18.86
2022-10-05T09:30:43.644Z,18.87
2022-10-05T09:33:43.507Z,18.93
2022-10-05T09:36:41.730Z,18.98
2022-10-05T09:39:31.864Z,18.81
2022-10-05T09:42:38.021Z,18.72
2022-10-05T09:45:31.262Z,18.74
2022-10-05T09:48:36.566Z,18.77
2022-10-05T09:51:29.202Z,18.83
2022-10-05T09:54:31.529Z,18.84
2022-10-05T09:57:28.140Z,18.99
2022-10-05T10:00:20.944Z,18.95
2022-10-05T10:03:18.627Z,19.09
2022-10-05T10:06:12.818Z,19.13
2022-10-05T10:09:05.161Z,19.30
2022-10-05T10:11:47.086Z,19.31
2022-10-05T10:14:52.336Z,19.40
2022-10-05T10:17:57.967Z,19.44
2022-10-05T10:20:39.099Z,19.51
2022-10-05T10:23:32.337Z,19.51
2022-10-05T10:26:45.022Z,19.52
2022-10-05T10:29:40.471Z,19.65
2022-10-05T10:32:22.088Z,19.65
2022-10-05T10:35:22.787Z,19.76
2022-10-05T10:38:28.713Z,20.04
2022-10-05T10:41:22.955Z,20.30
2022-10-05T10:44:20.337Z,20.48
2022-10-05T10:47:13.828Z,20.71
2022-10-05T10:49:56.464Z,20.91
2022-10-05T10:52:44.876Z,21.01
2022-10-05T10:55:30.307Z,20.99
2022-10-05T10:58:31.627Z,20.98
2022-10-05T11:01:13.894Z,21.01
2022-10-05T11:04:10.399Z,21.44
2022-10-05T11:07:06.627Z,22.06
2022-10-05T11:10:06.467Z,22.53
2022-10-05T11:13:02.811Z,23.25
2022-10-05T11:16:11.639Z,23.33
2022-10-05T11:19:04.862Z,23.01
2022-10-05T11:21:40.819Z,23.26
2022-10-05T11:24:44.291Z,24.24
2022-10-05T11:27:57.500Z,25.63
2022-10-05T11:30:52.513Z,26.33
2022-10-05T11:33:53.649Z,26.71
2022-10-05T11:36:52.441Z,26.86
2022-10-05T11:39:38.873Z,26.96
2022-10-05T11:42:36.456Z,27.04
2022-10-05T11:45:21.923Z,27.49
2022-10-05T11:48:08.059Z,27.55
2022-10-05T11:50:45.687Z,27.06
2022-10-05T11:53:26.170Z,27.28
2022-10-05T11:56:07.966Z,26.27
2022-10-05T11:58:43.297Z,25.31
2022-10-05T12:01:22.531Z,25.63
2022-10-05T12:04:02.468Z,26.99
2022-10-05T12:06:47.030Z,26.54
2022-10-05T12:10:00.680Z,25.61
2022-10-05T12:12:35.997Z,24.48
2022-10-05T12:15:17.534Z,23.90
2022-10-05T12:20:26.976Z,23.87
2022-10-05T12:23:02.437Z,23.99
2022-10-05T12:25:40.762Z,24.88
2022-10-05T12:28:14.975Z,27.49
2022-10-05T12:31:06.548Z,30.64
2022-10-05T12:33:40.487Z,33.23
2022-10-05T12:36:16.907Z,34.94
2022-10-05T12:38:53.188Z,35.85
2022-10-05T12:41:31.914Z,34.76
2022-10-05T12:44:15.848Z,32.57
2022-10-05T12:46:53.849Z,30.30
2022-10-05T12:49:37.257Z,28.42
2022-10-05T12:52:21.117Z,26.86
2022-10-05T12:54:57.823Z,25.88
2022-10-05T12:57:41.039Z,25.11
2022-10-05T13:00:17.744Z,24.73
2022-10-05T13:03:06.583Z,24.53
2022-10-05T13:05:44.114Z,24.25
2022-10-05T13:08:23.940Z,24.06
2022-10-05T13:11:02.188Z,23.73
2022-10-05T13:13:43.799Z,23.51
2022-10-05T13:16:28.061Z,23.22
2022-10-05T13:19:10.343Z,23.05
2022-10-05T13:21:59.355Z,22.92
2022-10-05T13:24:34.314Z,22.75
2022-10-05T13:27:09.248Z,22.67
2022-10-05T13:29:49.012Z,22.56
2022-10-05T13:32:26.339Z,22.52
2022-10-05T13:35:10.588Z,22.52
2022-10-05T13:37:48.670Z,22.53
2022-10-05T13:40:27.387Z,22.51
2022-10-05T13:43:04.713Z,22.45
2022-10-05T13:45:45.423Z,22.49
2022-10-05T13:48:26.943Z,22.51
2022-10-05T13:51:05.354Z,22.40
2022-10-05T13:53:44.571Z,22.34
2022-10-05T13:56:22.824Z,22.26
2022-10-05T13:59:00.487Z,22.12
2022-10-05T14:01:44.277Z,22.05
2022-10-05T14:04:20.623Z,21.99
2022-10-05T14:06:52.570Z,21.99
2022-10-05T14:09:33.525Z,21.97
2022-10-05T14:12:17.003Z,21.94
2022-10-05T14:14:50.552Z,21.83
2022-10-05T14:17:42.419Z,21.78
2022-10-05T14:20:31.084Z,21.85
2022-10-05T14:23:03.690Z,21.68
2022-10-05T14:25:50.340Z,21.67
2022-10-05T14:28:29.517Z,21.73
2022-10-05T14:31:01.552Z,21.60
2022-10-05T14:33:36.586Z,21.61
2022-10-05T14:36:09.185Z,21.70
2022-10-05T14:38:55.072Z,21.65
2022-10-05T14:41:27.980Z,21.72
2022-10-05T14:44:03.617Z,21.72
2022-10-05T14:46:35.360Z,21.75
2022-10-05T14:49:20.454Z,21.59
2022-10-05T14:51:51.032Z,21.60
2022-10-05T14:54:28.501Z,21.59
2022-10-05T14:57:08.081Z,21.55
2022-10-05T14:59:57.406Z,21.49
2022-10-05T15:02:47.994Z,21.51
2022-10-05T15:05:31.402Z,21.59
2022-10-05T15:08:09.017Z,21.56
2022-10-05T15:10:44.424Z,21.54
2022-10-05T15:13:19.141Z,21.61
2022-10-05T15:15:54.820Z,21.59
2022-10-05T15:18:34.963Z,21.56
2022-10-05T15:21:22.615Z,21.60
2022-10-05T15:23:57.580Z,21.44
2022-10-05T15:26:48.636Z,21.48
2022-10-05T15:29:51.328Z,21.44
2022-10-05T15:32:34.403Z,21.57
2022-10-05T15:35:24.826Z,21.48
2022-10-05T15:38:02.696Z,21.35
2022-10-05T15:40:39.806Z,21.30
2022-10-05T15:43:17.038Z,21.29
2022-10-05T15:45:57.210Z,21.33
2022-10-05T15:48:32.233Z,21.31
2022-10-05T15:51:07.214Z,21.17
2022-10-05T15:53:46.619Z,21.16
2022-10-05T15:56:23.345Z,21.06
2022-10-05T15:58:57.007Z,21.11
2022-10-05T16:01:47.254Z,21.14
2022-10-05T16:04:26.140Z,21.15
2022-10-05T16:07:13.741Z,21.17
2022-10-05T16:09:56.227Z,21.20
2022-10-05T16:12:37.342Z,21.20
2022-10-05T16:15:21.757Z,21.12
2022-10-05T16:18:09.234Z,21.04
2022-10-05T16:20:46.308Z,21.03
2022-10-05T16:23:26.427Z,21.09
2022-10-05T16:26:10.157Z,21.10
2022-10-05T16:28:49.950Z,21.10
2022-10-05T16:31:25.058Z,21.11
2022-10-05T16:34:07.348Z,21.07
2022-10-05T16:36:53.231Z,21.06
2022-10-05T16:39:30.245Z,21.00
2022-10-05T16:42:11.881Z,21.03
2022-10-05T16:44:52.492Z,21.01
2022-10-05T16:47:45.907Z,21.03
2022-10-05T16:50:23.497Z,21.01
2022-10-05T16:53:00.502Z,21.00
2022-10-05T16:55:38.205Z,20.95
2022-10-05T16:58:19.581Z,20.94
2022-10-05T17:01:05.490Z,20.94
2022-10-05T17:03:51.364Z,20.90
2022-10-05T17:06:37.132Z,20.89
2022-10-05T17:09:32.257Z,20.78
2022-10-05T17:12:15.664Z,20.81
2022-10-05T17:15:01.408Z,20.76
2022-10-05T17:17:43.476Z,20.76
2022-10-05T17:20:42.471Z,20.73
2022-10-05T17:23:34.432Z,20.70
2022-10-05T17:26:18.890Z,20.67
2022-10-05T17:29:02.747Z,20.69
2022-10-05T17:32:10.789Z,20.68
2022-10-05T17:34:42.037Z,20.69
2022-10-05T17:37:21.078Z,20.68
2022-10-05T17:39:53.661Z,20.68
2022-10-05T17:42:48.124Z,20.67
2022-10-05T17:45:48.064Z,20.65
2022-10-05T17:48:44.560Z,20.63
2022-10-05T17:52:08.192Z,20.64
2022-10-05T17:55:31.207Z,20.60
2022-10-05T17:58:03.652Z,20.55
2022-10-05T18:00:43.926Z,20.50
2022-10-05T18:03:38.957Z,20.45
2022-10-05T18:06:44.740Z,20.42
2022-10-05T18:09:20.981Z,20.43
2022-10-05T18:12:11.521Z,20.38
2022-10-05T18:14:59.299Z,20.40
2022-10-05T18:17:42.127Z,20.38
2022-10-05T18:20:22.435Z,20.39
2022-10-05T18:22:53.778Z,20.39
2022-10-05T18:25:29.483Z,20.39
2022-10-05T18:28:11.537Z,20.35
2022-10-05T18:30:59.169Z,20.29
2022-10-05T18:33:51.961Z,20.25
2022-10-05T18:36:39.975Z,20.16
2022-10-05T18:39:23.388Z,20.14
2022-10-05T18:42:04.557Z,20.12
2022-10-05T18:44:42.203Z,20.08
2022-10-05T18:47:19.924Z,20.08
2022-10-05T18:50:06.137Z,20.05
2022-10-05T18:52:55.160Z,20.01
2022-10-05T18:55:34.641Z,19.98
2022-10-05T18:58:28.738Z,19.97
2022-10-05T19:01:21.374Z,19.95
2022-10-05T19:04:12.677Z,19.92
2022-10-05T19:06:52.059Z,19.90
2022-10-05T19:09:41.355Z,19.81
2022-10-05T19:12:20.874Z,19.80
2022-10-05T19:15:00.800Z,19.76
2022-10-05T19:17:46.169Z,19.76
2022-10-05T19:20:23.785Z,19.75
2022-10-05T19:23:12.488Z,19.77
2022-10-05T19:25:51.298Z,19.76
2022-10-05T19:28:29.372Z,19.74
2022-10-05T19:31:17.977Z,19.74
2022-10-05T19:34:02.126Z,19.75
2022-10-05T19:36:46.815Z,19.77
2022-10-05T19:39:24.210Z,19.75
2022-10-05T19:42:17.398Z,19.76
2022-10-05T19:44:56.043Z,19.66
2022-10-05T19:47:41.110Z,19.63
2022-10-05T19:50:24.590Z,19.67
2022-10-05T19:53:02.433Z,19.67
2022-10-05T19:55:39.695Z,19.60
2022-10-05T19:58:23.398Z,19.63
2022-10-05T20:01:01.216Z,19.64
2022-10-05T20:03:32.461Z,19.65
2022-10-05T20:06:04.158Z,19.66
2022-10-05T20:08:40.622Z,19.60
2022-10-05T20:11:14.160Z,19.68
2022-10-05T20:13:48.392Z,19.68
2022-10-05T20:19:54.822Z,19.63
2022-10-05T20:22:32.953Z,19.66
2022-10-05T20:25:05.773Z,19.66
2022-10-05T20:27:46.628Z,19.64
2022-10-05T20:30:21.189Z,19.62
2022-10-05T20:32:51.035Z,19.63
2022-10-05T20:35:22.459Z,19.60
2022-10-05T20:37:52.700Z,19.61
2022-10-05T20:40:23.065Z,19.58
2022-10-05T20:42:52.888Z,19.57
2022-10-05T20:45:25.498Z,19.57
2022-10-05T20:47:55.427Z,19.54
2022-10-05T20:50:25.180Z,19.51
2022-10-05T20:52:55.047Z,19.50
2022-10-05T20:55:29.202Z,19.51
2022-10-05T20:57:59.080Z,19.47
2022-10-05T21:00:52.094Z,19.44
2022-10-05T21:03:22.179Z,19.44
2022-10-05T21:05:52.067Z,19.44
2022-10-05T21:08:21.810Z,19.42
2022-10-05T21:10:51.568Z,19.43
2022-10-05T21:13:21.294Z,19.36
2022-10-05T21:15:53.833Z,19.34
2022-10-05T21:18:23.651Z,19.32
2022-10-05T21:20:53.435Z,19.34
2022-10-05T21:23:23.143Z,19.35
2022-10-05T21:25:53.115Z,19.28
2022-10-05T21:28:22.906Z,19.28
2022-10-05T21:30:55.476Z,19.28
2022-10-05T21:33:25.564Z,19.30
2022-10-05T21:35:55.714Z,19.33
2022-10-05T21:38:25.993Z,19.29
2022-10-05T21:40:56.046Z,19.30
2022-10-05T21:43:26.389Z,19.31
2022-10-05T21:45:59.205Z,19.27
2022-10-05T21:48:29.393Z,19.32
2022-10-05T21:51:01.052Z,19.30
2022-10-05T21:53:34.713Z,19.27
2022-10-05T21:56:07.288Z,19.24
2022-10-05T21:58:37.726Z,19.31
2022-10-05T22:01:10.162Z,19.32
2022-10-05T22:03:39.930Z,19.29
2022-10-05T22:06:10.635Z,19.28
2022-10-05T22:08:40.403Z,19.28
2022-10-05T22:11:14.945Z,19.24
2022-10-05T22:13:46.589Z,19.27
2022-10-05T22:16:20.371Z,19.25
2022-10-05T22:18:50.626Z,19.29
2022-10-05T22:21:21.136Z,19.25
2022-10-05T22:23:51.255Z,19.23
2022-10-05T22:26:23.485Z,19.27
2022-10-05T22:28:56.419Z,19.31
2022-10-05T22:31:28.932Z,19.32
2022-10-05T22:33:58.744Z,19.34
2022-10-05T22:36:28.913Z,19.36
2022-10-05T22:38:58.640Z,19.33
2022-10-05T22:41:28.520Z,19.36
2022-10-05T22:43:58.288Z,19.35
2022-10-05T22:46:30.787Z,19.36
2022-10-05T22:51:44.445Z,19.35
2022-10-05T22:54:14.189Z,19.33
2022-10-05T22:56:44.128Z,19.34
2022-10-05T22:59:13.944Z,19.33
2022-10-05T23:01:46.447Z,19.33
2022-10-05T23:04:16.252Z,19.38
2022-10-05T23:06:45.973Z,19.41
2022-10-05T23:09:15.711Z,19.39
2022-10-05T23:11:46.696Z,19.39
2022-10-05T23:14:16.891Z,19.38
2022-10-05T23:16:50.222Z,19.32
2022-10-05T23:19:20.007Z,19.30
2022-10-05T23:21:49.795Z,19.29
2022-10-05T23:24:19.511Z,19.29
2022-10-05T23:26:49.357Z,19.23
2022-10-05T23:29:19.185Z,19.26
2022-10-05T23:31:51.500Z,19.20
2022-10-05T23:34:21.269Z,19.19
2022-10-05T23:36:51.052Z,19.19
2022-10-05T23:39:20.937Z,19.24
2022-10-05T23:41:50.833Z,19.21
2022-10-05T23:44:20.620Z,19.14
2022-10-05T23:46:52.955Z,19.14
2022-10-05T23:49:23.176Z,19.10
2022-10-05T23:51:52.893Z,19.14
2022-10-05T23:54:22.605Z,19.17
2022-10-05T23:56:52.358Z,19.19
2022-10-05T23:59:22.205Z,19.13
